sensor_id;sensor_type;location;lat;lon;timestamp;P1;durP1;ratioP1;P2;durP2;ratioP2
66012;SDS011;52783;50.502;8.190;2023-03-21T00:01:54;17.00;;;4.28;;
66012;SDS011;52783;50.502;8.190;2023-03-21T00:04:20;10.40;;;3.40;;
66012;SDS011;52783;50.502;8.190;2023-03-21T00:06:50;8.35;;;4.00;;
66012;SDS011;52783;50.502;8.190;2023-03-21T00:09:16;8.85;;;3.70;;
66012;SDS011;52783;50.502;8.190;2023-03-21T00:11:42;14.98;;;3.90;;
66012;SDS011;52783;50.502;8.190;2023-03-21T00:14:07;9.13;;;3.60;;
66012;SDS011;52783;50.502;8.190;2023-03-21T00:16:38;7.82;;;3.25;;
66012;SDS011;52783;50.502;8.190;2023-03-21T00:19:04;8.52;;;3.67;;
66012;SDS011;52783;50.502;8.190;2023-03-21T00:21:33;10.98;;;4.53;;
66012;SDS011;52783;50.502;8.190;2023-03-21T00:24:02;9.95;;;3.45;;
66012;SDS011;52783;50.502;8.190;2023-03-21T00:26:29;7.50;;;3.13;;
66012;SDS011;52783;50.502;8.190;2023-03-21T00:28:55;9.15;;;3.97;;
66012;SDS011;52783;50.502;8.190;2023-03-21T00:31:21;10.55;;;3.30;;
66012;SDS011;52783;50.502;8.190;2023-03-21T00:33:46;8.73;;;3.60;;
66012;SDS011;52783;50.502;8.190;2023-03-21T00:36:12;9.05;;;3.50;;
66012;SDS011;52783;50.502;8.190;2023-03-21T00:38:38;8.50;;;3.78;;
66012;SDS011;52783;50.502;8.190;2023-03-21T00:41:04;10.00;;;3.60;;
66012;SDS011;52783;50.502;8.190;2023-03-21T00:43:31;12.70;;;3.78;;
66012;SDS011;52783;50.502;8.190;2023-03-21T00:45:57;9.73;;;3.53;;
66012;SDS011;52783;50.502;8.190;2023-03-21T00:48:24;9.18;;;3.63;;
66012;SDS011;52783;50.502;8.190;2023-03-21T00:50:51;7.65;;;3.53;;
66012;SDS011;52783;50.502;8.190;2023-03-21T00:53:18;6.88;;;3.13;;
66012;SDS011;52783;50.502;8.190;2023-03-21T00:55:43;15.02;;;3.55;;
66012;SDS011;52783;50.502;8.190;2023-03-21T00:58:09;9.93;;;3.75;;
66012;SDS011;52783;50.502;8.190;2023-03-21T01:00:35;8.82;;;3.55;;
66012;SDS011;52783;50.502;8.190;2023-03-21T01:03:01;8.50;;;3.67;;
66012;SDS011;52783;50.502;8.190;2023-03-21T01:05:36;9.10;;;3.20;;
66012;SDS011;52783;50.502;8.190;2023-03-21T01:08:21;14.57;;;4.13;;
66012;SDS011;52783;50.502;8.190;2023-03-21T01:10:48;7.28;;;3.72;;
66012;SDS011;52783;50.502;8.190;2023-03-21T01:13:15;12.30;;;3.70;;
66012;SDS011;52783;50.502;8.190;2023-03-21T01:15:45;7.55;;;3.28;;
66012;SDS011;52783;50.502;8.190;2023-03-21T01:18:13;11.18;;;3.67;;
66012;SDS011;52783;50.502;8.190;2023-03-21T01:20:41;11.30;;;3.70;;
66012;SDS011;52783;50.502;8.190;2023-03-21T01:23:07;10.45;;;3.47;;
66012;SDS011;52783;50.502;8.190;2023-03-21T01:25:34;11.10;;;3.97;;
66012;SDS011;52783;50.502;8.190;2023-03-21T01:27:59;13.52;;;4.10;;
66012;SDS011;52783;50.502;8.190;2023-03-21T01:30:25;11.30;;;3.90;;
66012;SDS011;52783;50.502;8.190;2023-03-21T01:32:51;9.57;;;4.57;;
66012;SDS011;52783;50.502;8.190;2023-03-21T01:35:16;9.23;;;3.80;;
66012;SDS011;52783;50.502;8.190;2023-03-21T01:37:42;8.95;;;3.72;;
66012;SDS011;52783;50.502;8.190;2023-03-21T01:40:09;7.15;;;3.75;;
66012;SDS011;52783;50.502;8.190;2023-03-21T01:42:40;12.30;;;4.15;;
66012;SDS011;52783;50.502;8.190;2023-03-21T01:45:57;8.52;;;3.17;;
66012;SDS011;52783;50.502;8.190;2023-03-21T01:48:10;10.93;;;3.50;;
66012;SDS011;52783;50.502;8.190;2023-03-21T01:50:36;9.60;;;3.45;;
66012;SDS011;52783;50.502;8.190;2023-03-21T01:53:04;8.80;;;3.38;;
66012;SDS011;52783;50.502;8.190;2023-03-21T01:55:30;5.55;;;2.83;;
66012;SDS011;52783;50.502;8.190;2023-03-21T01:57:56;14.68;;;3.70;;
66012;SDS011;52783;50.502;8.190;2023-03-21T02:00:23;15.07;;;3.42;;
66012;SDS011;52783;50.502;8.190;2023-03-21T02:02:53;7.95;;;3.13;;
66012;SDS011;52783;50.502;8.190;2023-03-21T02:05:35;9.52;;;3.30;;
66012;SDS011;52783;50.502;8.190;2023-03-21T02:08:05;6.50;;;3.22;;
66012;SDS011;52783;50.502;8.190;2023-03-21T02:10:31;13.15;;;3.92;;
66012;SDS011;52783;50.502;8.190;2023-03-21T02:12:57;6.68;;;3.05;;
66012;SDS011;52783;50.502;8.190;2023-03-21T02:15:32;9.00;;;3.40;;
66012;SDS011;52783;50.502;8.190;2023-03-21T02:18:11;9.40;;;2.83;;
66012;SDS011;52783;50.502;8.190;2023-03-21T02:29:37;7.90;;;3.45;;
66012;SDS011;52783;50.502;8.190;2023-03-21T02:35:23;6.40;;;2.80;;
66012;SDS011;52783;50.502;8.190;2023-03-21T02:38:18;5.35;;;2.67;;
66012;SDS011;52783;50.502;8.190;2023-03-21T02:41:08;10.52;;;2.97;;
66012;SDS011;52783;50.502;8.190;2023-03-21T02:43:46;7.20;;;2.90;;
66012;SDS011;52783;50.502;8.190;2023-03-21T02:46:42;6.53;;;3.15;;
66012;SDS011;52783;50.502;8.190;2023-03-21T02:52:16;6.53;;;3.03;;
66012;SDS011;52783;50.502;8.190;2023-03-21T02:54:45;8.38;;;2.72;;
66012;SDS011;52783;50.502;8.190;2023-03-21T02:57:12;9.80;;;3.55;;
66012;SDS011;52783;50.502;8.190;2023-03-21T02:59:40;10.65;;;3.20;;
66012;SDS011;52783;50.502;8.190;2023-03-21T03:02:06;12.57;;;3.15;;
66012;SDS011;52783;50.502;8.190;2023-03-21T03:04:32;8.90;;;3.33;;
66012;SDS011;52783;50.502;8.190;2023-03-21T03:12:44;5.93;;;3.33;;
66012;SDS011;52783;50.502;8.190;2023-03-21T03:15:29;8.32;;;3.38;;
66012;SDS011;52783;50.502;8.190;2023-03-21T03:18:08;9.95;;;3.50;;
66012;SDS011;52783;50.502;8.190;2023-03-21T03:20:52;11.32;;;3.20;;
66012;SDS011;52783;50.502;8.190;2023-03-21T03:26:11;14.07;;;3.20;;
66012;SDS011;52783;50.502;8.190;2023-03-21T03:28:40;7.68;;;3.53;;
66012;SDS011;52783;50.502;8.190;2023-03-21T03:31:09;10.15;;;3.53;;
66012;SDS011;52783;50.502;8.190;2023-03-21T03:33:39;8.38;;;3.33;;
66012;SDS011;52783;50.502;8.190;2023-03-21T03:36:08;6.90;;;2.97;;
66012;SDS011;52783;50.502;8.190;2023-03-21T03:38:35;10.73;;;3.13;;
66012;SDS011;52783;50.502;8.190;2023-03-21T03:41:06;17.02;;;3.58;;
66012;SDS011;52783;50.502;8.190;2023-03-21T03:43:40;19.95;;;4.68;;
66012;SDS011;52783;50.502;8.190;2023-03-21T03:46:13;8.35;;;3.08;;
66012;SDS011;52783;50.502;8.190;2023-03-21T03:48:45;12.10;;;3.53;;
66012;SDS011;52783;50.502;8.190;2023-03-21T03:51:20;11.23;;;3.78;;
66012;SDS011;52783;50.502;8.190;2023-03-21T03:54:05;10.40;;;3.67;;
66012;SDS011;52783;50.502;8.190;2023-03-21T03:56:36;7.57;;;3.15;;
66012;SDS011;52783;50.502;8.190;2023-03-21T03:59:03;4.65;;;2.63;;
66012;SDS011;52783;50.502;8.190;2023-03-21T04:01:29;12.63;;;3.67;;
66012;SDS011;52783;50.502;8.190;2023-03-21T04:03:54;13.43;;;3.42;;
66012;SDS011;52783;50.502;8.190;2023-03-21T04:06:20;9.60;;;3.42;;
66012;SDS011;52783;50.502;8.190;2023-03-21T04:08:46;16.98;;;3.80;;
66012;SDS011;52783;50.502;8.190;2023-03-21T04:11:12;7.00;;;3.20;;
66012;SDS011;52783;50.502;8.190;2023-03-21T04:13:40;8.55;;;3.63;;
66012;SDS011;52783;50.502;8.190;2023-03-21T04:16:05;7.07;;;3.13;;
66012;SDS011;52783;50.502;8.190;2023-03-21T04:18:32;7.07;;;3.20;;
66012;SDS011;52783;50.502;8.190;2023-03-21T04:20:58;13.60;;;3.10;;
66012;SDS011;52783;50.502;8.190;2023-03-21T04:23:23;11.88;;;3.20;;
66012;SDS011;52783;50.502;8.190;2023-03-21T04:25:49;8.73;;;3.15;;
66012;SDS011;52783;50.502;8.190;2023-03-21T04:28:17;11.18;;;3.03;;
66012;SDS011;52783;50.502;8.190;2023-03-21T04:30:47;6.75;;;3.20;;
66012;SDS011;52783;50.502;8.190;2023-03-21T04:33:13;13.43;;;3.65;;
66012;SDS011;52783;50.502;8.190;2023-03-21T04:35:39;7.95;;;3.35;;
66012;SDS011;52783;50.502;8.190;2023-03-21T04:38:06;8.50;;;3.17;;
66012;SDS011;52783;50.502;8.190;2023-03-21T04:40:31;10.88;;;3.25;;
66012;SDS011;52783;50.502;8.190;2023-03-21T04:42:57;8.10;;;3.35;;
66012;SDS011;52783;50.502;8.190;2023-03-21T04:45:25;7.82;;;3.00;;
66012;SDS011;52783;50.502;8.190;2023-03-21T04:47:50;10.75;;;3.75;;
66012;SDS011;52783;50.502;8.190;2023-03-21T04:50:16;8.88;;;3.40;;
66012;SDS011;52783;50.502;8.190;2023-03-21T04:52:42;9.55;;;3.55;;
66012;SDS011;52783;50.502;8.190;2023-03-21T04:55:07;11.25;;;4.00;;
66012;SDS011;52783;50.502;8.190;2023-03-21T04:57:34;9.63;;;3.65;;
66012;SDS011;52783;50.502;8.190;2023-03-21T05:00:01;15.13;;;3.47;;
66012;SDS011;52783;50.502;8.190;2023-03-21T05:02:33;10.93;;;3.80;;
66012;SDS011;52783;50.502;8.190;2023-03-21T05:04:58;10.60;;;3.63;;
66012;SDS011;52783;50.502;8.190;2023-03-21T05:07:24;14.55;;;4.25;;
66012;SDS011;52783;50.502;8.190;2023-03-21T05:09:50;14.50;;;3.90;;
66012;SDS011;52783;50.502;8.190;2023-03-21T05:12:16;12.10;;;4.35;;
66012;SDS011;52783;50.502;8.190;2023-03-21T05:14:43;14.20;;;4.28;;
66012;SDS011;52783;50.502;8.190;2023-03-21T05:17:09;16.05;;;4.15;;
66012;SDS011;52783;50.502;8.190;2023-03-21T05:19:34;11.75;;;4.40;;
66012;SDS011;52783;50.502;8.190;2023-03-21T05:22:04;13.63;;;4.35;;
66012;SDS011;52783;50.502;8.190;2023-03-21T05:24:34;10.68;;;4.13;;
66012;SDS011;52783;50.502;8.190;2023-03-21T05:27:03;11.35;;;4.60;;
66012;SDS011;52783;50.502;8.190;2023-03-21T05:29:29;7.85;;;4.00;;
66012;SDS011;52783;50.502;8.190;2023-03-21T05:31:56;10.18;;;3.85;;
66012;SDS011;52783;50.502;8.190;2023-03-21T05:34:22;12.65;;;4.55;;
66012;SDS011;52783;50.502;8.190;2023-03-21T05:36:48;9.25;;;4.65;;
66012;SDS011;52783;50.502;8.190;2023-03-21T05:39:14;13.48;;;4.57;;
66012;SDS011;52783;50.502;8.190;2023-03-21T05:41:39;12.30;;;4.57;;
66012;SDS011;52783;50.502;8.190;2023-03-21T05:44:05;15.57;;;5.47;;
66012;SDS011;52783;50.502;8.190;2023-03-21T05:46:30;16.55;;;5.25;;
66012;SDS011;52783;50.502;8.190;2023-03-21T05:48:56;14.02;;;4.55;;
66012;SDS011;52783;50.502;8.190;2023-03-21T05:51:22;9.98;;;4.53;;
66012;SDS011;52783;50.502;8.190;2023-03-21T05:53:47;14.63;;;4.70;;
66012;SDS011;52783;50.502;8.190;2023-03-21T05:56:13;13.63;;;5.07;;
66012;SDS011;52783;50.502;8.190;2023-03-21T05:58:38;7.97;;;3.97;;
66012;SDS011;52783;50.502;8.190;2023-03-21T06:01:04;11.13;;;4.65;;
66012;SDS011;52783;50.502;8.190;2023-03-21T06:03:30;13.35;;;4.47;;
66012;SDS011;52783;50.502;8.190;2023-03-21T06:05:55;10.77;;;4.40;;
66012;SDS011;52783;50.502;8.190;2023-03-21T06:08:21;12.70;;;5.35;;
66012;SDS011;52783;50.502;8.190;2023-03-21T06:10:47;23.67;;;4.70;;
66012;SDS011;52783;50.502;8.190;2023-03-21T06:13:12;9.90;;;3.90;;
66012;SDS011;52783;50.502;8.190;2023-03-21T06:15:38;13.80;;;5.28;;
66012;SDS011;52783;50.502;8.190;2023-03-21T06:18:04;14.45;;;4.72;;
66012;SDS011;52783;50.502;8.190;2023-03-21T06:20:29;9.88;;;4.40;;
66012;SDS011;52783;50.502;8.190;2023-03-21T06:22:55;13.50;;;4.80;;
66012;SDS011;52783;50.502;8.190;2023-03-21T06:25:20;11.43;;;4.72;;
66012;SDS011;52783;50.502;8.190;2023-03-21T06:27:46;10.57;;;4.18;;
66012;SDS011;52783;50.502;8.190;2023-03-21T06:30:12;14.73;;;4.50;;
66012;SDS011;52783;50.502;8.190;2023-03-21T06:32:38;10.27;;;4.53;;
66012;SDS011;52783;50.502;8.190;2023-03-21T06:35:04;13.35;;;4.40;;
66012;SDS011;52783;50.502;8.190;2023-03-21T06:37:30;6.72;;;3.67;;
66012;SDS011;52783;50.502;8.190;2023-03-21T06:39:56;15.13;;;4.90;;
66012;SDS011;52783;50.502;8.190;2023-03-21T06:42:21;9.52;;;4.90;;
66012;SDS011;52783;50.502;8.190;2023-03-21T06:44:46;11.20;;;4.70;;
66012;SDS011;52783;50.502;8.190;2023-03-21T06:47:12;14.73;;;4.95;;
66012;SDS011;52783;50.502;8.190;2023-03-21T06:49:37;13.60;;;4.50;;
66012;SDS011;52783;50.502;8.190;2023-03-21T06:52:04;7.05;;;4.32;;
66012;SDS011;52783;50.502;8.190;2023-03-21T06:54:30;17.23;;;6.28;;
66012;SDS011;52783;50.502;8.190;2023-03-21T06:56:56;17.08;;;5.25;;
66012;SDS011;52783;50.502;8.190;2023-03-21T06:59:21;13.02;;;4.93;;
66012;SDS011;52783;50.502;8.190;2023-03-21T07:01:47;14.63;;;5.43;;
66012;SDS011;52783;50.502;8.190;2023-03-21T07:04:12;13.10;;;5.43;;
66012;SDS011;52783;50.502;8.190;2023-03-21T07:06:38;15.68;;;5.20;;
66012;SDS011;52783;50.502;8.190;2023-03-21T07:09:04;13.90;;;4.43;;
66012;SDS011;52783;50.502;8.190;2023-03-21T07:11:30;9.13;;;4.18;;
66012;SDS011;52783;50.502;8.190;2023-03-21T07:13:56;10.60;;;4.18;;
66012;SDS011;52783;50.502;8.190;2023-03-21T07:16:22;9.95;;;3.95;;
66012;SDS011;52783;50.502;8.190;2023-03-21T07:18:49;11.73;;;4.35;;
66012;SDS011;52783;50.502;8.190;2023-03-21T07:21:14;16.25;;;4.45;;
66012;SDS011;52783;50.502;8.190;2023-03-21T07:23:41;14.95;;;4.85;;
66012;SDS011;52783;50.502;8.190;2023-03-21T07:26:06;11.77;;;4.45;;
66012;SDS011;52783;50.502;8.190;2023-03-21T07:28:32;12.70;;;4.70;;
66012;SDS011;52783;50.502;8.190;2023-03-21T07:30:59;11.38;;;4.25;;
66012;SDS011;52783;50.502;8.190;2023-03-21T07:33:26;12.93;;;5.15;;
66012;SDS011;52783;50.502;8.190;2023-03-21T07:35:52;16.58;;;4.10;;
66012;SDS011;52783;50.502;8.190;2023-03-21T07:38:19;11.38;;;3.92;;
66012;SDS011;52783;50.502;8.190;2023-03-21T07:40:45;16.02;;;4.10;;
66012;SDS011;52783;50.502;8.190;2023-03-21T07:43:12;11.02;;;4.18;;
66012;SDS011;52783;50.502;8.190;2023-03-21T07:45:37;11.20;;;4.60;;
66012;SDS011;52783;50.502;8.190;2023-03-21T07:48:03;13.20;;;4.43;;
66012;SDS011;52783;50.502;8.190;2023-03-21T07:50:29;12.27;;;4.40;;
66012;SDS011;52783;50.502;8.190;2023-03-21T07:52:55;12.95;;;4.60;;
66012;SDS011;52783;50.502;8.190;2023-03-21T07:55:20;9.60;;;4.13;;
66012;SDS011;52783;50.502;8.190;2023-03-21T07:57:49;12.38;;;4.38;;
66012;SDS011;52783;50.502;8.190;2023-03-21T08:00:16;14.77;;;4.88;;
66012;SDS011;52783;50.502;8.190;2023-03-21T08:02:47;9.07;;;4.35;;
66012;SDS011;52783;50.502;8.190;2023-03-21T08:05:19;14.25;;;4.30;;
66012;SDS011;52783;50.502;8.190;2023-03-21T08:07:48;10.95;;;4.28;;
66012;SDS011;52783;50.502;8.190;2023-03-21T08:10:14;12.18;;;5.20;;
66012;SDS011;52783;50.502;8.190;2023-03-21T08:12:40;12.68;;;5.07;;
66012;SDS011;52783;50.502;8.190;2023-03-21T08:15:06;13.35;;;4.60;;
66012;SDS011;52783;50.502;8.190;2023-03-21T08:17:32;12.70;;;4.43;;
66012;SDS011;52783;50.502;8.190;2023-03-21T08:20:00;16.75;;;4.78;;
66012;SDS011;52783;50.502;8.190;2023-03-21T08:22:25;8.40;;;4.50;;
66012;SDS011;52783;50.502;8.190;2023-03-21T08:24:51;13.10;;;5.05;;
66012;SDS011;52783;50.502;8.190;2023-03-21T08:27:16;13.00;;;4.57;;
66012;SDS011;52783;50.502;8.190;2023-03-21T08:29:43;13.82;;;4.70;;
66012;SDS011;52783;50.502;8.190;2023-03-21T08:32:08;8.73;;;4.28;;
66012;SDS011;52783;50.502;8.190;2023-03-21T08:34:34;10.65;;;4.22;;
66012;SDS011;52783;50.502;8.190;2023-03-21T08:37:00;10.98;;;4.70;;
66012;SDS011;52783;50.502;8.190;2023-03-21T08:39:26;11.43;;;4.32;;
66012;SDS011;52783;50.502;8.190;2023-03-21T08:41:52;13.10;;;4.55;;
66012;SDS011;52783;50.502;8.190;2023-03-21T08:44:18;6.90;;;4.72;;
66012;SDS011;52783;50.502;8.190;2023-03-21T08:46:44;16.08;;;4.65;;
66012;SDS011;52783;50.502;8.190;2023-03-21T08:49:09;11.73;;;4.10;;
66012;SDS011;52783;50.502;8.190;2023-03-21T08:51:36;17.33;;;5.47;;
66012;SDS011;52783;50.502;8.190;2023-03-21T08:54:02;12.85;;;6.03;;
66012;SDS011;52783;50.502;8.190;2023-03-21T08:56:37;23.95;;;10.40;;
66012;SDS011;52783;50.502;8.190;2023-03-21T08:59:02;15.63;;;5.57;;
66012;SDS011;52783;50.502;8.190;2023-03-21T09:01:28;18.13;;;5.32;;
66012;SDS011;52783;50.502;8.190;2023-03-21T09:03:53;13.15;;;4.95;;
66012;SDS011;52783;50.502;8.190;2023-03-21T09:06:19;15.80;;;5.38;;
66012;SDS011;52783;50.502;8.190;2023-03-21T09:08:44;18.38;;;5.22;;
66012;SDS011;52783;50.502;8.190;2023-03-21T09:11:10;11.80;;;5.10;;
66012;SDS011;52783;50.502;8.190;2023-03-21T09:13:35;10.90;;;4.78;;
66012;SDS011;52783;50.502;8.190;2023-03-21T09:16:01;13.35;;;5.00;;
66012;SDS011;52783;50.502;8.190;2023-03-21T09:18:27;10.88;;;4.93;;
66012;SDS011;52783;50.502;8.190;2023-03-21T09:21:09;10.77;;;4.88;;
66012;SDS011;52783;50.502;8.190;2023-03-21T09:23:37;14.85;;;5.55;;
66012;SDS011;52783;50.502;8.190;2023-03-21T09:26:04;15.60;;;5.18;;
66012;SDS011;52783;50.502;8.190;2023-03-21T09:28:30;14.05;;;5.20;;
66012;SDS011;52783;50.502;8.190;2023-03-21T09:30:59;11.27;;;4.57;;
66012;SDS011;52783;50.502;8.190;2023-03-21T09:33:26;14.48;;;5.70;;
66012;SDS011;52783;50.502;8.190;2023-03-21T09:35:53;14.85;;;4.93;;
66012;SDS011;52783;50.502;8.190;2023-03-21T09:38:19;11.43;;;5.30;;
66012;SDS011;52783;50.502;8.190;2023-03-21T09:48:42;15.23;;;6.75;;
66012;SDS011;52783;50.502;8.190;2023-03-21T09:51:25;19.88;;;6.70;;
66012;SDS011;52783;50.502;8.190;2023-03-21T09:53:55;16.05;;;5.93;;
66012;SDS011;52783;50.502;8.190;2023-03-21T09:56:24;13.60;;;6.30;;
66012;SDS011;52783;50.502;8.190;2023-03-21T09:58:51;19.08;;;6.22;;
66012;SDS011;52783;50.502;8.190;2023-03-21T10:01:22;20.17;;;6.85;;
66012;SDS011;52783;50.502;8.190;2023-03-21T10:04:05;13.02;;;5.75;;
66012;SDS011;52783;50.502;8.190;2023-03-21T10:06:34;15.70;;;6.55;;
66012;SDS011;52783;50.502;8.190;2023-03-21T10:09:05;16.15;;;6.43;;
66012;SDS011;52783;50.502;8.190;2023-03-21T10:14:19;16.02;;;5.97;;
66012;SDS011;52783;50.502;8.190;2023-03-21T10:19:56;15.57;;;5.85;;
66012;SDS011;52783;50.502;8.190;2023-03-21T10:22:38;17.90;;;5.97;;
66012;SDS011;52783;50.502;8.190;2023-03-21T10:25:04;15.05;;;6.10;;
66012;SDS011;52783;50.502;8.190;2023-03-21T10:27:31;18.30;;;5.88;;
66012;SDS011;52783;50.502;8.190;2023-03-21T10:29:59;16.98;;;5.85;;
66012;SDS011;52783;50.502;8.190;2023-03-21T10:32:25;15.32;;;4.47;;
66012;SDS011;52783;50.502;8.190;2023-03-21T10:34:54;12.85;;;5.13;;
66012;SDS011;52783;50.502;8.190;2023-03-21T10:37:22;11.25;;;5.00;;
66012;SDS011;52783;50.502;8.190;2023-03-21T10:39:49;11.55;;;4.88;;
66012;SDS011;52783;50.502;8.190;2023-03-21T10:42:21;8.13;;;4.32;;
66012;SDS011;52783;50.502;8.190;2023-03-21T10:44:51;10.90;;;4.18;;
66012;SDS011;52783;50.502;8.190;2023-03-21T10:47:19;12.77;;;4.90;;
66012;SDS011;52783;50.502;8.190;2023-03-21T10:49:47;12.23;;;4.57;;
66012;SDS011;52783;50.502;8.190;2023-03-21T10:52:14;12.93;;;4.43;;
66012;SDS011;52783;50.502;8.190;2023-03-21T10:54:45;11.40;;;3.95;;
66012;SDS011;52783;50.502;8.190;2023-03-21T10:57:12;10.13;;;4.20;;
66012;SDS011;52783;50.502;8.190;2023-03-21T10:59:43;12.25;;;4.07;;
66012;SDS011;52783;50.502;8.190;2023-03-21T11:02:18;13.88;;;4.55;;
66012;SDS011;52783;50.502;8.190;2023-03-21T11:04:49;11.75;;;4.97;;
66012;SDS011;52783;50.502;8.190;2023-03-21T11:07:17;10.27;;;4.20;;
66012;SDS011;52783;50.502;8.190;2023-03-21T11:12:15;14.77;;;4.45;;
66012;SDS011;52783;50.502;8.190;2023-03-21T11:14:43;9.45;;;4.25;;
66012;SDS011;52783;50.502;8.190;2023-03-21T11:19:45;9.02;;;3.90;;
66012;SDS011;52783;50.502;8.190;2023-03-21T11:22:12;14.55;;;4.57;;
66012;SDS011;52783;50.502;8.190;2023-03-21T11:24:39;7.32;;;3.83;;
66012;SDS011;52783;50.502;8.190;2023-03-21T11:27:08;9.57;;;3.80;;
66012;SDS011;52783;50.502;8.190;2023-03-21T11:29:39;12.88;;;5.40;;
66012;SDS011;52783;50.502;8.190;2023-03-21T11:32:19;14.63;;;4.53;;
66012;SDS011;52783;50.502;8.190;2023-03-21T11:37:25;12.20;;;4.38;;
66012;SDS011;52783;50.502;8.190;2023-03-21T11:39:59;15.70;;;4.65;;
66012;SDS011;52783;50.502;8.190;2023-03-21T11:42:30;12.93;;;3.97;;
66012;SDS011;52783;50.502;8.190;2023-03-21T11:45:00;13.90;;;4.43;;
66012;SDS011;52783;50.502;8.190;2023-03-21T11:47:35;21.45;;;4.25;;
66012;SDS011;52783;50.502;8.190;2023-03-21T11:50:04;17.98;;;4.38;;
66012;SDS011;52783;50.502;8.190;2023-03-21T11:52:41;10.63;;;3.83;;
66012;SDS011;52783;50.502;8.190;2023-03-21T11:55:17;14.30;;;3.97;;
66012;SDS011;52783;50.502;8.190;2023-03-21T11:58:08;10.90;;;4.15;;
66012;SDS011;52783;50.502;8.190;2023-03-21T12:01:12;12.80;;;3.70;;
66012;SDS011;52783;50.502;8.190;2023-03-21T12:06:58;9.90;;;4.63;;
66012;SDS011;52783;50.502;8.190;2023-03-21T12:09:36;8.38;;;4.00;;
66012;SDS011;52783;50.502;8.190;2023-03-21T12:17:21;12.32;;;5.00;;
66012;SDS011;52783;50.502;8.190;2023-03-21T12:19:59;18.10;;;5.03;;
66012;SDS011;52783;50.502;8.190;2023-03-21T12:25:37;12.27;;;4.57;;
66012;SDS011;52783;50.502;8.190;2023-03-21T12:31:04;11.63;;;3.97;;
66012;SDS011;52783;50.502;8.190;2023-03-21T12:33:45;13.87;;;4.83;;
66012;SDS011;52783;50.502;8.190;2023-03-21T12:39:30;13.05;;;4.57;;
66012;SDS011;52783;50.502;8.190;2023-03-21T12:42:09;14.85;;;4.18;;
66012;SDS011;52783;50.502;8.190;2023-03-21T12:44:39;16.58;;;4.40;;
66012;SDS011;52783;50.502;8.190;2023-03-21T12:47:12;13.57;;;4.97;;
66012;SDS011;52783;50.502;8.190;2023-03-21T12:49:42;13.07;;;4.50;;
66012;SDS011;52783;50.502;8.190;2023-03-21T12:52:40;10.43;;;4.55;;
66012;SDS011;52783;50.502;8.190;2023-03-21T12:55:24;12.15;;;4.18;;
66012;SDS011;52783;50.502;8.190;2023-03-21T12:58:00;11.27;;;4.07;;
66012;SDS011;52783;50.502;8.190;2023-03-21T13:00:40;9.43;;;4.07;;
66012;SDS011;52783;50.502;8.190;2023-03-21T13:03:10;16.65;;;4.90;;
66012;SDS011;52783;50.502;8.190;2023-03-21T13:05:58;10.65;;;4.18;;
66012;SDS011;52783;50.502;8.190;2023-03-21T13:08:33;7.68;;;3.95;;
66012;SDS011;52783;50.502;8.190;2023-03-21T13:11:03;10.82;;;4.32;;
66012;SDS011;52783;50.502;8.190;2023-03-21T13:13:32;9.55;;;3.95;;
66012;SDS011;52783;50.502;8.190;2023-03-21T13:16:09;12.07;;;5.00;;
66012;SDS011;52783;50.502;8.190;2023-03-21T13:18:53;11.90;;;4.40;;
66012;SDS011;52783;50.502;8.190;2023-03-21T13:21:37;11.60;;;4.22;;
66012;SDS011;52783;50.502;8.190;2023-03-21T13:24:25;8.75;;;3.95;;
66012;SDS011;52783;50.502;8.190;2023-03-21T13:27:03;14.88;;;4.13;;
66012;SDS011;52783;50.502;8.190;2023-03-21T13:29:49;12.05;;;4.38;;
66012;SDS011;52783;50.502;8.190;2023-03-21T13:32:35;10.75;;;4.03;;
66012;SDS011;52783;50.502;8.190;2023-03-21T13:38:35;8.80;;;4.05;;
66012;SDS011;52783;50.502;8.190;2023-03-21T13:40:55;7.28;;;3.35;;
66012;SDS011;52783;50.502;8.190;2023-03-21T13:46:09;12.25;;;4.10;;
66012;SDS011;52783;50.502;8.190;2023-03-21T13:53:59;7.43;;;3.70;;
66012;SDS011;52783;50.502;8.190;2023-03-21T13:56:26;9.57;;;4.03;;
66012;SDS011;52783;50.502;8.190;2023-03-21T13:58:59;9.80;;;3.80;;
66012;SDS011;52783;50.502;8.190;2023-03-21T14:01:38;10.63;;;3.75;;
66012;SDS011;52783;50.502;8.190;2023-03-21T14:06:33;9.43;;;3.90;;
66012;SDS011;52783;50.502;8.190;2023-03-21T14:09:01;17.08;;;5.18;;
66012;SDS011;52783;50.502;8.190;2023-03-21T14:11:28;8.65;;;4.32;;
66012;SDS011;52783;50.502;8.190;2023-03-21T14:13:57;10.77;;;4.00;;
66012;SDS011;52783;50.502;8.190;2023-03-21T14:16:25;12.55;;;4.57;;
66012;SDS011;52783;50.502;8.190;2023-03-21T14:18:55;6.28;;;4.07;;
66012;SDS011;52783;50.502;8.190;2023-03-21T14:21:25;7.35;;;4.22;;
66012;SDS011;52783;50.502;8.190;2023-03-21T14:23:56;7.85;;;4.13;;
66012;SDS011;52783;50.502;8.190;2023-03-21T14:26:34;11.73;;;4.60;;
66012;SDS011;52783;50.502;8.190;2023-03-21T14:29:05;8.98;;;4.20;;
66012;SDS011;52783;50.502;8.190;2023-03-21T14:31:33;11.57;;;5.05;;
66012;SDS011;52783;50.502;8.190;2023-03-21T14:34:00;11.45;;;4.72;;
66012;SDS011;52783;50.502;8.190;2023-03-21T14:36:30;8.63;;;4.85;;
66012;SDS011;52783;50.502;8.190;2023-03-21T14:41:42;10.68;;;5.00;;
66012;SDS011;52783;50.502;8.190;2023-03-21T14:44:16;10.75;;;4.80;;
66012;SDS011;52783;50.502;8.190;2023-03-21T14:46:59;8.05;;;4.43;;
66012;SDS011;52783;50.502;8.190;2023-03-21T14:49:32;12.50;;;5.10;;
66012;SDS011;52783;50.502;8.190;2023-03-21T14:55:10;10.10;;;4.72;;
66012;SDS011;52783;50.502;8.190;2023-03-21T14:57:39;10.00;;;4.88;;
66012;SDS011;52783;50.502;8.190;2023-03-21T15:00:06;11.35;;;5.38;;
66012;SDS011;52783;50.502;8.190;2023-03-21T15:02:40;9.48;;;5.05;;
66012;SDS011;52783;50.502;8.190;2023-03-21T15:05:09;11.82;;;5.78;;
66012;SDS011;52783;50.502;8.190;2023-03-21T15:07:38;14.65;;;5.25;;
66012;SDS011;52783;50.502;8.190;2023-03-21T15:10:06;10.27;;;4.80;;
66012;SDS011;52783;50.502;8.190;2023-03-21T15:12:45;11.00;;;4.63;;
66012;SDS011;52783;50.502;8.190;2023-03-21T15:15:33;10.02;;;4.70;;
66012;SDS011;52783;50.502;8.190;2023-03-21T15:18:02;8.10;;;5.38;;
66012;SDS011;52783;50.502;8.190;2023-03-21T15:20:30;8.77;;;4.90;;
66012;SDS011;52783;50.502;8.190;2023-03-21T15:23:00;12.80;;;5.57;;
66012;SDS011;52783;50.502;8.190;2023-03-21T15:25:33;6.38;;;4.50;;
66012;SDS011;52783;50.502;8.190;2023-03-21T15:28:00;8.70;;;5.07;;
66012;SDS011;52783;50.502;8.190;2023-03-21T15:30:27;7.80;;;4.80;;
66012;SDS011;52783;50.502;8.190;2023-03-21T15:32:55;11.73;;;5.70;;
66012;SDS011;52783;50.502;8.190;2023-03-21T15:35:26;11.18;;;5.28;;
66012;SDS011;52783;50.502;8.190;2023-03-21T15:37:58;7.75;;;4.80;;
66012;SDS011;52783;50.502;8.190;2023-03-21T15:43:02;8.90;;;5.55;;
66012;SDS011;52783;50.502;8.190;2023-03-21T15:45:29;13.05;;;5.22;;
66012;SDS011;52783;50.502;8.190;2023-03-21T15:47:59;11.45;;;5.32;;
66012;SDS011;52783;50.502;8.190;2023-03-21T15:50:36;7.20;;;5.43;;
66012;SDS011;52783;50.502;8.190;2023-03-21T15:53:06;9.40;;;5.20;;
66012;SDS011;52783;50.502;8.190;2023-03-21T15:58:09;12.32;;;5.30;;
66012;SDS011;52783;50.502;8.190;2023-03-21T16:00:41;13.63;;;5.80;;
66012;SDS011;52783;50.502;8.190;2023-03-21T16:03:14;9.98;;;5.80;;
66012;SDS011;52783;50.502;8.190;2023-03-21T16:05:59;9.75;;;5.43;;
66012;SDS011;52783;50.502;8.190;2023-03-21T16:08:32;12.50;;;5.75;;
66012;SDS011;52783;50.502;8.190;2023-03-21T16:11:35;11.10;;;5.70;;
66012;SDS011;52783;50.502;8.190;2023-03-21T16:13:53;13.00;;;5.88;;
66012;SDS011;52783;50.502;8.190;2023-03-21T16:16:27;12.90;;;6.20;;
66012;SDS011;52783;50.502;8.190;2023-03-21T16:18:54;10.63;;;5.45;;
66012;SDS011;52783;50.502;8.190;2023-03-21T16:21:22;12.88;;;6.07;;